sensor_id;sensor_type;location;lat;lon;timestamp;pressure;altitude;pressure_sealevel;temperature
38114;BMP180;23926;53.222;6.354;2022-07-30T00:02:08;101683.00;;;18.00
38114;BMP180;23926;53.222;6.354;2022-07-30T00:04:34;101678.00;;;18.00
38114;BMP180;23926;53.222;6.354;2022-07-30T00:07:00;101684.00;;;18.00
38114;BMP180;23926;53.222;6.354;2022-07-30T00:09:25;101677.00;;;18.00
38114;BMP180;23926;53.222;6.354;2022-07-30T00:11:50;101684.00;;;18.00
38114;BMP180;23926;53.222;6.354;2022-07-30T00:14:16;101671.00;;;18.00
38114;BMP180;23926;53.222;6.354;2022-07-30T00:16:41;101682.00;;;18.00
38114;BMP180;23926;53.222;6.354;2022-07-30T00:19:07;101677.00;;;17.90
38114;BMP180;23926;53.222;6.354;2022-07-30T00:21:32;101684.00;;;17.80
38114;BMP180;23926;53.222;6.354;2022-07-30T00:23:58;101671.00;;;17.80
38114;BMP180;23926;53.222;6.354;2022-07-30T00:26:23;101676.00;;;17.80
38114;BMP180;23926;53.222;6.354;2022-07-30T00:28:48;101662.00;;;17.80
38114;BMP180;23926;53.222;6.354;2022-07-30T00:31:14;101665.00;;;17.70
38114;BMP180;23926;53.222;6.354;2022-07-30T00:33:39;101668.00;;;17.70
38114;BMP180;23926;53.222;6.354;2022-07-30T00:36:04;101659.00;;;17.70
38114;BMP180;23926;53.222;6.354;2022-07-30T00:38:30;101670.00;;;17.70
38114;BMP180;23926;53.222;6.354;2022-07-30T00:40:55;101667.00;;;17.70
38114;BMP180;23926;53.222;6.354;2022-07-30T00:43:22;101659.00;;;17.60
38114;BMP180;23926;53.222;6.354;2022-07-30T00:45:47;101659.00;;;17.60
38114;BMP180;23926;53.222;6.354;2022-07-30T00:48:13;101663.00;;;17.50
38114;BMP180;23926;53.222;6.354;2022-07-30T00:50:39;101669.00;;;17.50
38114;BMP180;23926;53.222;6.354;2022-07-30T00:53:05;101668.00;;;17.50
38114;BMP180;23926;53.222;6.354;2022-07-30T00:55:31;101653.00;;;17.40
38114;BMP180;23926;53.222;6.354;2022-07-30T00:57:56;101658.00;;;17.40
38114;BMP180;23926;53.222;6.354;2022-07-30T01:00:23;101645.00;;;17.30
38114;BMP180;23926;53.222;6.354;2022-07-30T01:02:49;101661.00;;;17.30
38114;BMP180;23926;53.222;6.354;2022-07-30T01:05:14;101644.00;;;17.20
38114;BMP180;23926;53.222;6.354;2022-07-30T01:07:40;101650.00;;;17.10
38114;BMP180;23926;53.222;6.354;2022-07-30T01:10:06;101650.00;;;17.00
38114;BMP180;23926;53.222;6.354;2022-07-30T01:12:33;101641.00;;;17.00
38114;BMP180;23926;53.222;6.354;2022-07-30T01:14:59;101639.00;;;17.10
38114;BMP180;23926;53.222;6.354;2022-07-30T01:17:25;101630.00;;;17.10
38114;BMP180;23926;53.222;6.354;2022-07-30T01:19:53;101636.00;;;17.00
38114;BMP180;23926;53.222;6.354;2022-07-30T01:25:21;101645.00;;;17.00
38114;BMP180;23926;53.222;6.354;2022-07-30T01:28:02;101640.00;;;17.10
38114;BMP180;23926;53.222;6.354;2022-07-30T01:30:30;101638.00;;;17.10
38114;BMP180;23926;53.222;6.354;2022-07-30T01:32:57;101627.00;;;17.10
38114;BMP180;23926;53.222;6.354;2022-07-30T01:35:26;101633.00;;;17.10
38114;BMP180;23926;53.222;6.354;2022-07-30T01:37:53;101636.00;;;17.00
38114;BMP180;23926;53.222;6.354;2022-07-30T01:40:19;101632.00;;;16.90
38114;BMP180;23926;53.222;6.354;2022-07-30T01:42:47;101635.00;;;16.70
38114;BMP180;23926;53.222;6.354;2022-07-30T01:45:14;101643.00;;;16.50
38114;BMP180;23926;53.222;6.354;2022-07-30T01:47:41;101638.00;;;16.30
38114;BMP180;23926;53.222;6.354;2022-07-30T01:50:11;101642.00;;;16.10
38114;BMP180;23926;53.222;6.354;2022-07-30T01:52:44;101643.00;;;16.10
38114;BMP180;23926;53.222;6.354;2022-07-30T01:55:13;101626.00;;;16.10
38114;BMP180;23926;53.222;6.354;2022-07-30T01:57:40;101632.00;;;16.00
38114;BMP180;23926;53.222;6.354;2022-07-30T02:00:06;101627.00;;;16.00
38114;BMP180;23926;53.222;6.354;2022-07-30T02:02:35;101627.00;;;15.90
38114;BMP180;23926;53.222;6.354;2022-07-30T02:05:01;101632.00;;;15.80
38114;BMP180;23926;53.222;6.354;2022-07-30T02:07:54;101619.00;;;15.70
38114;BMP180;23926;53.222;6.354;2022-07-30T02:10:33;101634.00;;;15.70
38114;BMP180;23926;53.222;6.354;2022-07-30T02:13:03;101631.00;;;15.80
38114;BMP180;23926;53.222;6.354;2022-07-30T02:15:49;101623.00;;;15.90
38114;BMP180;23926;53.222;6.354;2022-07-30T02:18:35;101629.00;;;16.10
38114;BMP180;23926;53.222;6.354;2022-07-30T02:21:05;101624.00;;;16.20
38114;BMP180;23926;53.222;6.354;2022-07-30T02:23:35;101616.00;;;16.10
38114;BMP180;23926;53.222;6.354;2022-07-30T02:26:03;101615.00;;;16.10
38114;BMP180;23926;53.222;6.354;2022-07-30T02:28:31;101605.00;;;16.10
38114;BMP180;23926;53.222;6.354;2022-07-30T02:30:59;101623.00;;;16.20
38114;BMP180;23926;53.222;6.354;2022-07-30T02:33:28;101615.00;;;16.20
38114;BMP180;23926;53.222;6.354;2022-07-30T02:35:55;101621.00;;;16.20
38114;BMP180;23926;53.222;6.354;2022-07-30T02:38:22;101623.00;;;16.00
38114;BMP180;23926;53.222;6.354;2022-07-30T02:40:49;101612.00;;;15.90
38114;BMP180;23926;53.222;6.354;2022-07-30T02:43:16;101623.00;;;15.90
38114;BMP180;23926;53.222;6.354;2022-07-30T02:45:45;101603.00;;;16.00
38114;BMP180;23926;53.222;6.354;2022-07-30T02:48:12;101619.00;;;16.10
38114;BMP180;23926;53.222;6.354;2022-07-30T02:50:39;101617.00;;;16.20
38114;BMP180;23926;53.222;6.354;2022-07-30T02:53:08;101627.00;;;16.40
38114;BMP180;23926;53.222;6.354;2022-07-30T02:55:34;101616.00;;;16.50
38114;BMP180;23926;53.222;6.354;2022-07-30T02:58:03;101604.00;;;16.60
38114;BMP180;23926;53.222;6.354;2022-07-30T03:00:30;101615.00;;;16.50
38114;BMP180;23926;53.222;6.354;2022-07-30T03:02:56;101613.00;;;16.50
38114;BMP180;23926;53.222;6.354;2022-07-30T03:05:22;101620.00;;;16.30
38114;BMP180;23926;53.222;6.354;2022-07-30T03:07:48;101609.00;;;16.00
38114;BMP180;23926;53.222;6.354;2022-07-30T03:10:15;101616.00;;;15.70
38114;BMP180;23926;53.222;6.354;2022-07-30T03:12:44;101625.00;;;15.50
38114;BMP180;23926;53.222;6.354;2022-07-30T03:15:10;101606.00;;;15.30
38114;BMP180;23926;53.222;6.354;2022-07-30T03:17:43;101601.00;;;15.30
38114;BMP180;23926;53.222;6.354;2022-07-30T03:20:12;101607.00;;;15.30
38114;BMP180;23926;53.222;6.354;2022-07-30T03:22:42;101609.00;;;15.30
38114;BMP180;23926;53.222;6.354;2022-07-30T03:25:09;101605.00;;;15.40
38114;BMP180;23926;53.222;6.354;2022-07-30T03:27:36;101598.00;;;15.40
38114;BMP180;23926;53.222;6.354;2022-07-30T03:30:04;101600.00;;;15.60
38114;BMP180;23926;53.222;6.354;2022-07-30T03:32:30;101593.00;;;15.60
38114;BMP180;23926;53.222;6.354;2022-07-30T03:34:57;101583.00;;;15.70
38114;BMP180;23926;53.222;6.354;2022-07-30T03:37:25;101582.00;;;15.80
38114;BMP180;23926;53.222;6.354;2022-07-30T03:39:51;101590.00;;;15.80
38114;BMP180;23926;53.222;6.354;2022-07-30T03:42:18;101592.00;;;15.80
38114;BMP180;23926;53.222;6.354;2022-07-30T03:44:45;101599.00;;;15.90
38114;BMP180;23926;53.222;6.354;2022-07-30T03:47:11;101599.00;;;16.00
38114;BMP180;23926;53.222;6.354;2022-07-30T03:49:38;101606.00;;;16.10
38114;BMP180;23926;53.222;6.354;2022-07-30T03:52:03;101598.00;;;16.10
38114;BMP180;23926;53.222;6.354;2022-07-30T03:54:31;101591.00;;;16.10
38114;BMP180;23926;53.222;6.354;2022-07-30T03:56:59;101598.00;;;16.20
38114;BMP180;23926;53.222;6.354;2022-07-30T03:59:25;101605.00;;;16.20
38114;BMP180;23926;53.222;6.354;2022-07-30T04:01:50;101605.00;;;16.20
38114;BMP180;23926;53.222;6.354;2022-07-30T04:04:16;101614.00;;;16.20
38114;BMP180;23926;53.222;6.354;2022-07-30T04:06:41;101604.00;;;16.20
38114;BMP180;23926;53.222;6.354;2022-07-30T04:09:08;101625.00;;;16.30
38114;BMP180;23926;53.222;6.354;2022-07-30T04:11:34;101624.00;;;16.30
38114;BMP180;23926;53.222;6.354;2022-07-30T04:14:00;101600.00;;;16.20
38114;BMP180;23926;53.222;6.354;2022-07-30T04:16:39;101618.00;;;16.00
38114;BMP180;23926;53.222;6.354;2022-07-30T04:19:11;101622.00;;;15.90
38114;BMP180;23926;53.222;6.354;2022-07-30T04:21:40;101622.00;;;15.90
38114;BMP180;23926;53.222;6.354;2022-07-30T04:24:07;101615.00;;;15.90
38114;BMP180;23926;53.222;6.354;2022-07-30T04:26:35;101628.00;;;15.90
38114;BMP180;23926;53.222;6.354;2022-07-30T04:29:02;101625.00;;;15.90
38114;BMP180;23926;53.222;6.354;2022-07-30T04:31:28;101622.00;;;15.80
38114;BMP180;23926;53.222;6.354;2022-07-30T04:33:59;101620.00;;;15.70
38114;BMP180;23926;53.222;6.354;2022-07-30T04:36:24;101628.00;;;15.70
38114;BMP180;23926;53.222;6.354;2022-07-30T04:38:50;101616.00;;;15.70
38114;BMP180;23926;53.222;6.354;2022-07-30T04:41:15;101623.00;;;15.60
38114;BMP180;23926;53.222;6.354;2022-07-30T04:43:40;101639.00;;;15.60
38114;BMP180;23926;53.222;6.354;2022-07-30T04:46:06;101639.00;;;15.60
38114;BMP180;23926;53.222;6.354;2022-07-30T04:48:31;101628.00;;;15.50
38114;BMP180;23926;53.222;6.354;2022-07-30T04:50:59;101630.00;;;15.50
38114;BMP180;23926;53.222;6.354;2022-07-30T04:53:27;101644.00;;;15.50
38114;BMP180;23926;53.222;6.354;2022-07-30T04:55:53;101641.00;;;15.60
38114;BMP180;23926;53.222;6.354;2022-07-30T04:58:19;101635.00;;;15.70
38114;BMP180;23926;53.222;6.354;2022-07-30T05:00:47;101628.00;;;15.80
38114;BMP180;23926;53.222;6.354;2022-07-30T05:03:14;101634.00;;;15.90
38114;BMP180;23926;53.222;6.354;2022-07-30T05:05:41;101629.00;;;16.10
38114;BMP180;23926;53.222;6.354;2022-07-30T05:08:07;101627.00;;;16.20
38114;BMP180;23926;53.222;6.354;2022-07-30T05:10:33;101628.00;;;16.30
38114;BMP180;23926;53.222;6.354;2022-07-30T05:12:58;101631.00;;;16.40
38114;BMP180;23926;53.222;6.354;2022-07-30T05:15:24;101629.00;;;16.50
38114;BMP180;23926;53.222;6.354;2022-07-30T05:17:50;101643.00;;;16.60
38114;BMP180;23926;53.222;6.354;2022-07-30T05:20:15;101646.00;;;16.60
38114;BMP180;23926;53.222;6.354;2022-07-30T05:22:40;101646.00;;;16.70
38114;BMP180;23926;53.222;6.354;2022-07-30T05:25:06;101652.00;;;16.80
38114;BMP180;23926;53.222;6.354;2022-07-30T05:27:31;101656.00;;;16.90
38114;BMP180;23926;53.222;6.354;2022-07-30T05:29:57;101652.00;;;17.00
38114;BMP180;23926;53.222;6.354;2022-07-30T05:32:22;101650.00;;;17.10
38114;BMP180;23926;53.222;6.354;2022-07-30T05:34:48;101654.00;;;17.20
38114;BMP180;23926;53.222;6.354;2022-07-30T05:37:13;101660.00;;;17.30
38114;BMP180;23926;53.222;6.354;2022-07-30T05:39:38;101652.00;;;17.40
38114;BMP180;23926;53.222;6.354;2022-07-30T05:42:04;101665.00;;;17.50
38114;BMP180;23926;53.222;6.354;2022-07-30T05:44:29;101658.00;;;17.60
38114;BMP180;23926;53.222;6.354;2022-07-30T05:46:54;101653.00;;;17.70
38114;BMP180;23926;53.222;6.354;2022-07-30T05:49:20;101668.00;;;17.80
38114;BMP180;23926;53.222;6.354;2022-07-30T05:51:45;101659.00;;;17.80
38114;BMP180;23926;53.222;6.354;2022-07-30T05:54:11;101669.00;;;17.90
38114;BMP180;23926;53.222;6.354;2022-07-30T05:56:36;101680.00;;;17.90
38114;BMP180;23926;53.222;6.354;2022-07-30T05:59:02;101678.00;;;18.00
38114;BMP180;23926;53.222;6.354;2022-07-30T06:01:27;101679.00;;;18.10
38114;BMP180;23926;53.222;6.354;2022-07-30T06:03:53;101680.00;;;18.30
38114;BMP180;23926;53.222;6.354;2022-07-30T06:06:18;101682.00;;;18.50
38114;BMP180;23926;53.222;6.354;2022-07-30T06:08:44;101678.00;;;18.80
38114;BMP180;23926;53.222;6.354;2022-07-30T06:11:09;101670.00;;;19.00
38114;BMP180;23926;53.222;6.354;2022-07-30T06:13:35;101682.00;;;19.10
38114;BMP180;23926;53.222;6.354;2022-07-30T06:16:00;101677.00;;;19.10
38114;BMP180;23926;53.222;6.354;2022-07-30T06:18:26;101672.00;;;19.20
38114;BMP180;23926;53.222;6.354;2022-07-30T06:20:52;101680.00;;;19.20
38114;BMP180;23926;53.222;6.354;2022-07-30T06:23:19;101691.00;;;19.40
38114;BMP180;23926;53.222;6.354;2022-07-30T06:25:48;101686.00;;;19.50
38114;BMP180;23926;53.222;6.354;2022-07-30T06:28:15;101689.00;;;19.50
38114;BMP180;23926;53.222;6.354;2022-07-30T06:30:41;101693.00;;;19.50
38114;BMP180;23926;53.222;6.354;2022-07-30T06:33:06;101695.00;;;19.50
38114;BMP180;23926;53.222;6.354;2022-07-30T06:35:32;101695.00;;;19.70
38114;BMP180;23926;53.222;6.354;2022-07-30T06:37:58;101699.00;;;19.90
38114;BMP180;23926;53.222;6.354;2022-07-30T06:40:24;101689.00;;;20.00
38114;BMP180;23926;53.222;6.354;2022-07-30T06:42:49;101700.00;;;20.10
38114;BMP180;23926;53.222;6.354;2022-07-30T06:45:15;101699.00;;;20.10
38114;BMP180;23926;53.222;6.354;2022-07-30T06:47:40;101698.00;;;20.30
38114;BMP180;23926;53.222;6.354;2022-07-30T06:50:06;101702.00;;;20.30
38114;BMP180;23926;53.222;6.354;2022-07-30T06:52:32;101694.00;;;20.50
38114;BMP180;23926;53.222;6.354;2022-07-30T06:54:57;101696.00;;;20.60
38114;BMP180;23926;53.222;6.354;2022-07-30T06:57:22;101702.00;;;20.80
38114;BMP180;23926;53.222;6.354;2022-07-30T06:59:48;101690.00;;;21.00
38114;BMP180;23926;53.222;6.354;2022-07-30T07:02:13;101690.00;;;21.20
38114;BMP180;23926;53.222;6.354;2022-07-30T07:04:38;101698.00;;;21.30
38114;BMP180;23926;53.222;6.354;2022-07-30T07:07:04;101695.00;;;21.40
38114;BMP180;23926;53.222;6.354;2022-07-30T07:09:29;101696.00;;;21.40
38114;BMP180;23926;53.222;6.354;2022-07-30T07:11:55;101698.00;;;21.50
38114;BMP180;23926;53.222;6.354;2022-07-30T07:14:20;101692.00;;;21.80
38114;BMP180;23926;53.222;6.354;2022-07-30T07:16:47;101696.00;;;21.90
38114;BMP180;23926;53.222;6.354;2022-07-30T07:19:13;101704.00;;;22.00
38114;BMP180;23926;53.222;6.354;2022-07-30T07:21:38;101706.00;;;22.10
38114;BMP180;23926;53.222;6.354;2022-07-30T07:24:04;101714.00;;;22.30
38114;BMP180;23926;53.222;6.354;2022-07-30T07:26:30;101708.00;;;22.40
38114;BMP180;23926;53.222;6.354;2022-07-30T07:28:56;101711.00;;;22.70
38114;BMP180;23926;53.222;6.354;2022-07-30T07:31:21;101715.00;;;22.80
38114;BMP180;23926;53.222;6.354;2022-07-30T07:33:47;101709.00;;;22.90
38114;BMP180;23926;53.222;6.354;2022-07-30T07:36:13;101727.00;;;22.70
38114;BMP180;23926;53.222;6.354;2022-07-30T07:38:39;101718.00;;;22.60
38114;BMP180;23926;53.222;6.354;2022-07-30T07:41:04;101724.00;;;22.80
38114;BMP180;23926;53.222;6.354;2022-07-30T07:43:30;101720.00;;;22.80
38114;BMP180;23926;53.222;6.354;2022-07-30T07:45:55;101721.00;;;22.70
38114;BMP180;23926;53.222;6.354;2022-07-30T07:48:21;101714.00;;;22.70
38114;BMP180;23926;53.222;6.354;2022-07-30T07:50:46;101725.00;;;22.90
38114;BMP180;23926;53.222;6.354;2022-07-30T07:53:12;101718.00;;;23.00
38114;BMP180;23926;53.222;6.354;2022-07-30T07:55:37;101723.00;;;23.00
38114;BMP180;23926;53.222;6.354;2022-07-30T07:58:03;101722.00;;;23.20
38114;BMP180;23926;53.222;6.354;2022-07-30T08:00:28;101712.00;;;23.20
38114;BMP180;23926;53.222;6.354;2022-07-30T08:02:54;101723.00;;;23.40
38114;BMP180;23926;53.222;6.354;2022-07-30T08:05:20;101732.00;;;23.60
38114;BMP180;23926;53.222;6.354;2022-07-30T08:07:45;101737.00;;;23.80
38114;BMP180;23926;53.222;6.354;2022-07-30T08:10:11;101720.00;;;23.90
38114;BMP180;23926;53.222;6.354;2022-07-30T08:12:39;101733.00;;;24.00
38114;BMP180;23926;53.222;6.354;2022-07-30T08:15:05;101737.00;;;23.70
38114;BMP180;23926;53.222;6.354;2022-07-30T08:17:31;101731.00;;;23.50
38114;BMP180;23926;53.222;6.354;2022-07-30T08:19:59;101729.00;;;23.50
38114;BMP180;23926;53.222;6.354;2022-07-30T08:22:26;101718.00;;;23.80
38114;BMP180;23926;53.222;6.354;2022-07-30T08:24:51;101728.00;;;24.00
38114;BMP180;23926;53.222;6.354;2022-07-30T08:27:17;101741.00;;;24.10
38114;BMP180;23926;53.222;6.354;2022-07-30T08:29:42;101735.00;;;23.70
38114;BMP180;23926;53.222;6.354;2022-07-30T08:32:08;101723.00;;;23.50
38114;BMP180;23926;53.222;6.354;2022-07-30T08:34:33;101731.00;;;23.70
38114;BMP180;23926;53.222;6.354;2022-07-30T08:36:58;101735.00;;;23.80
38114;BMP180;23926;53.222;6.354;2022-07-30T08:39:24;101736.00;;;23.90
38114;BMP180;23926;53.222;6.354;2022-07-30T08:41:49;101731.00;;;24.00
38114;BMP180;23926;53.222;6.354;2022-07-30T08:44:16;101725.00;;;24.20
38114;BMP180;23926;53.222;6.354;2022-07-30T08:46:45;101731.00;;;24.10
38114;BMP180;23926;53.222;6.354;2022-07-30T08:49:11;101728.00;;;23.90
38114;BMP180;23926;53.222;6.354;2022-07-30T08:51:37;101732.00;;;24.00
38114;BMP180;23926;53.222;6.354;2022-07-30T08:54:03;101732.00;;;24.20
38114;BMP180;23926;53.222;6.354;2022-07-30T08:56:29;101733.00;;;24.30
38114;BMP180;23926;53.222;6.354;2022-07-30T08:58:56;101735.00;;;24.50
38114;BMP180;23926;53.222;6.354;2022-07-30T09:01:22;101738.00;;;24.60
38114;BMP180;23926;53.222;6.354;2022-07-30T09:03:47;101744.00;;;24.70
38114;BMP180;23926;53.222;6.354;2022-07-30T09:06:13;101753.00;;;24.60
38114;BMP180;23926;53.222;6.354;2022-07-30T09:08:39;101737.00;;;24.20
38114;BMP180;23926;53.222;6.354;2022-07-30T09:11:04;101736.00;;;24.10
38114;BMP180;23926;53.222;6.354;2022-07-30T09:13:33;101739.00;;;24.30
38114;BMP180;23926;53.222;6.354;2022-07-30T09:16:03;101742.00;;;24.20
38114;BMP180;23926;53.222;6.354;2022-07-30T09:18:32;101745.00;;;24.30
38114;BMP180;23926;53.222;6.354;2022-07-30T09:21:00;101740.00;;;24.30
38114;BMP180;23926;53.222;6.354;2022-07-30T09:23:25;101739.00;;;24.40
38114;BMP180;23926;53.222;6.354;2022-07-30T09:25:50;101736.00;;;24.40
38114;BMP180;23926;53.222;6.354;2022-07-30T09:28:26;101740.00;;;24.50
38114;BMP180;23926;53.222;6.354;2022-07-30T09:30:54;101737.00;;;24.50
38114;BMP180;23926;53.222;6.354;2022-07-30T09:35:59;101745.00;;;24.50
38114;BMP180;23926;53.222;6.354;2022-07-30T09:38:25;101740.00;;;24.50
38114;BMP180;23926;53.222;6.354;2022-07-30T09:40:55;101743.00;;;24.80
38114;BMP180;23926;53.222;6.354;2022-07-30T09:43:21;101751.00;;;24.80
38114;BMP180;23926;53.222;6.354;2022-07-30T09:45:54;101754.00;;;24.70
38114;BMP180;23926;53.222;6.354;2022-07-30T09:48:27;101749.00;;;24.80
38114;BMP180;23926;53.222;6.354;2022-07-30T09:50:53;101738.00;;;24.70
38114;BMP180;23926;53.222;6.354;2022-07-30T09:53:20;101749.00;;;24.80
38114;BMP180;23926;53.222;6.354;2022-07-30T09:55:48;101747.00;;;24.80
38114;BMP180;23926;53.222;6.354;2022-07-30T09:58:14;101735.00;;;25.00
38114;BMP180;23926;53.222;6.354;2022-07-30T10:00:40;101742.00;;;25.00
38114;BMP180;23926;53.222;6.354;2022-07-30T10:03:19;101744.00;;;25.30
38114;BMP180;23926;53.222;6.354;2022-07-30T10:05:56;101753.00;;;25.30
38114;BMP180;23926;53.222;6.354;2022-07-30T10:08:49;101755.00;;;25.30
38114;BMP180;23926;53.222;6.354;2022-07-30T10:11:19;101750.00;;;25.20
38114;BMP180;23926;53.222;6.354;2022-07-30T10:13:48;101749.00;;;25.60
38114;BMP180;23926;53.222;6.354;2022-07-30T10:16:14;101757.00;;;25.90
38114;BMP180;23926;53.222;6.354;2022-07-30T10:18:41;101761.00;;;26.00
38114;BMP180;23926;53.222;6.354;2022-07-30T10:21:07;101759.00;;;26.00
38114;BMP180;23926;53.222;6.354;2022-07-30T10:23:33;101767.00;;;26.00
38114;BMP180;23926;53.222;6.354;2022-07-30T10:25:59;101762.00;;;25.80
38114;BMP180;23926;53.222;6.354;2022-07-30T10:28:26;101757.00;;;26.10
38114;BMP180;23926;53.222;6.354;2022-07-30T10:30:53;101761.00;;;25.80
38114;BMP180;23926;53.222;6.354;2022-07-30T10:33:21;101754.00;;;25.60
38114;BMP180;23926;53.222;6.354;2022-07-30T10:35:47;101759.00;;;25.20
38114;BMP180;23926;53.222;6.354;2022-07-30T10:38:13;101774.00;;;25.20
38114;BMP180;23926;53.222;6.354;2022-07-30T10:40:55;101769.00;;;25.20
38114;BMP180;23926;53.222;6.354;2022-07-30T10:48:45;101775.00;;;25.90
38114;BMP180;23926;53.222;6.354;2022-07-30T10:51:10;101776.00;;;26.10
38114;BMP180;23926;53.222;6.354;2022-07-30T10:53:44;101770.00;;;26.20
38114;BMP180;23926;53.222;6.354;2022-07-30T10:59:05;101773.00;;;25.80
38114;BMP180;23926;53.222;6.354;2022-07-30T11:04:24;101769.00;;;25.90
38114;BMP180;23926;53.222;6.354;2022-07-30T11:06:50;101766.00;;;26.10
38114;BMP180;23926;53.222;6.354;2022-07-30T11:09:40;101769.00;;;25.70
38114;BMP180;23926;53.222;6.354;2022-07-30T11:12:08;101763.00;;;25.80
38114;BMP180;23926;53.222;6.354;2022-07-30T11:17:14;101762.00;;;26.20
38114;BMP180;23926;53.222;6.354;2022-07-30T11:22:36;101764.00;;;26.40
38114;BMP180;23926;53.222;6.354;2022-07-30T11:25:09;101762.00;;;26.40
38114;BMP180;23926;53.222;6.354;2022-07-30T11:27:55;101762.00;;;26.30
38114;BMP180;23926;53.222;6.354;2022-07-30T11:35:31;101774.00;;;26.00
38114;BMP180;23926;53.222;6.354;2022-07-30T11:43:28;101773.00;;;26.50
38114;BMP180;23926;53.222;6.354;2022-07-30T11:46:13;101780.00;;;26.60
38114;BMP180;23926;53.222;6.354;2022-07-30T11:48:40;101773.00;;;26.60
38114;BMP180;23926;53.222;6.354;2022-07-30T11:51:07;101777.00;;;26.50
38114;BMP180;23926;53.222;6.354;2022-07-30T11:53:33;101786.00;;;26.20
38114;BMP180;23926;53.222;6.354;2022-07-30T11:56:02;101789.00;;;26.30
38114;BMP180;23926;53.222;6.354;2022-07-30T11:58:36;101782.00;;;26.20
38114;BMP180;23926;53.222;6.354;2022-07-30T12:01:15;101772.00;;;26.20
38114;BMP180;23926;53.222;6.354;2022-07-30T12:03:42;101780.00;;;26.50
38114;BMP180;23926;53.222;6.354;2022-07-30T12:06:12;101787.00;;;26.60
38114;BMP180;23926;53.222;6.354;2022-07-30T12:08:44;101786.00;;;26.70
38114;BMP180;23926;53.222;6.354;2022-07-30T12:11:10;101791.00;;;26.80
38114;BMP180;23926;53.222;6.354;2022-07-30T12:13:37;101795.00;;;26.70
38114;BMP180;23926;53.222;6.354;2022-07-30T12:16:11;101794.00;;;26.50
38114;BMP180;23926;53.222;6.354;2022-07-30T12:18:37;101793.00;;;26.50
38114;BMP180;23926;53.222;6.354;2022-07-30T12:21:06;101796.00;;;26.30
38114;BMP180;23926;53.222;6.354;2022-07-30T12:23:34;101797.00;;;26.30
38114;BMP180;23926;53.222;6.354;2022-07-30T12:26:01;101791.00;;;26.00
38114;BMP180;23926;53.222;6.354;2022-07-30T12:28:28;101804.00;;;25.80
38114;BMP180;23926;53.222;6.354;2022-07-30T12:30:55;101798.00;;;25.80
38114;BMP180;23926;53.222;6.354;2022-07-30T12:33:22;101801.00;;;26.00
38114;BMP180;23926;53.222;6.354;2022-07-30T12:35:58;101786.00;;;26.20
38114;BMP180;23926;53.222;6.354;2022-07-30T12:38:24;101798.00;;;26.30
38114;BMP180;23926;53.222;6.354;2022-07-30T12:41:00;101799.00;;;26.30
38114;BMP180;23926;53.222;6.354;2022-07-30T12:43:46;101785.00;;;26.00
38114;BMP180;23926;53.222;6.354;2022-07-30T12:46:22;101798.00;;;26.00
38114;BMP180;23926;53.222;6.354;2022-07-30T12:49:08;101797.00;;;25.70
38114;BMP180;23926;53.222;6.354;2022-07-30T12:51:49;101789.00;;;25.90
38114;BMP180;23926;53.222;6.354;2022-07-30T12:54:17;101799.00;;;26.00
38114;BMP180;23926;53.222;6.354;2022-07-30T12:57:01;101791.00;;;26.10
38114;BMP180;23926;53.222;6.354;2022-07-30T12:59:27;101785.00;;;26.10
38114;BMP180;23926;53.222;6.354;2022-07-30T13:01:53;101787.00;;;26.30
38114;BMP180;23926;53.222;6.354;2022-07-30T13:04:20;101797.00;;;26.30
38114;BMP180;23926;53.222;6.354;2022-07-30T13:07:08;101789.00;;;26.10
38114;BMP180;23926;53.222;6.354;2022-07-30T13:09:34;101785.00;;;26.10
38114;BMP180;23926;53.222;6.354;2022-07-30T13:12:00;101780.00;;;26.10
38114;BMP180;23926;53.222;6.354;2022-07-30T13:14:25;101783.00;;;26.00
38114;BMP180;23926;53.222;6.354;2022-07-30T13:16:52;101779.00;;;26.00
38114;BMP180;23926;53.222;6.354;2022-07-30T13:19:19;101789.00;;;25.90
38114;BMP180;23926;53.222;6.354;2022-07-30T13:21:44;101777.00;;;26.00
38114;BMP180;23926;53.222;6.354;2022-07-30T13:24:09;101784.00;;;26.10
38114;BMP180;23926;53.222;6.354;2022-07-30T13:26:36;101793.00;;;26.10
38114;BMP180;23926;53.222;6.354;2022-07-30T13:29:02;101794.00;;;26.10
38114;BMP180;23926;53.222;6.354;2022-07-30T13:31:28;101795.00;;;26.40
38114;BMP180;23926;53.222;6.354;2022-07-30T13:33:53;101796.00;;;26.50
38114;BMP180;23926;53.222;6.354;2022-07-30T13:36:19;101798.00;;;26.60
38114;BMP180;23926;53.222;6.354;2022-07-30T13:38:44;101786.00;;;26.50
38114;BMP180;23926;53.222;6.354;2022-07-30T13:41:10;101801.00;;;26.40
38114;BMP180;23926;53.222;6.354;2022-07-30T13:43:39;101797.00;;;26.30
38114;BMP180;23926;53.222;6.354;2022-07-30T13:46:04;101795.00;;;26.20
38114;BMP180;23926;53.222;6.354;2022-07-30T13:48:31;101806.00;;;26.40
38114;BMP180;23926;53.222;6.354;2022-07-30T13:50:56;101805.00;;;26.30
38114;BMP180;23926;53.222;6.354;2022-07-30T13:53:22;101802.00;;;26.50
38114;BMP180;23926;53.222;6.354;2022-07-30T13:55:47;101808.00;;;26.50
38114;BMP180;23926;53.222;6.354;2022-07-30T13:58:13;101804.00;;;26.30
38114;BMP180;23926;53.222;6.354;2022-07-30T14:00:38;101803.00;;;26.30
38114;BMP180;23926;53.222;6.354;2022-07-30T14:03:08;101817.00;;;26.20
38114;BMP180;23926;53.222;6.354;2022-07-30T14:05:35;101806.00;;;26.30
38114;BMP180;23926;53.222;6.354;2022-07-30T14:08:02;101807.00;;;26.20
38114;BMP180;23926;53.222;6.354;2022-07-30T14:10:28;101801.00;;;26.30
38114;BMP180;23926;53.222;6.354;2022-07-30T14:12:55;101801.00;;;26.30
38114;BMP180;23926;53.222;6.354;2022-07-30T14:15:21;101798.00;;;26.10
38114;BMP180;23926;53.222;6.354;2022-07-30T14:17:46;101791.00;;;26.20
38114;BMP180;23926;53.222;6.354;2022-07-30T14:20:12;101801.00;;;26.30
38114;BMP180;23926;53.222;6.354;2022-07-30T14:22:37;101815.00;;;26.40
38114;BMP180;23926;53.222;6.354;2022-07-30T14:25:03;101802.00;;;26.60
38114;BMP180;23926;53.222;6.354;2022-07-30T14:27:28;101808.00;;;26.50
38114;BMP180;23926;53.222;6.354;2022-07-30T14:29:54;101803.00;;;26.30
38114;BMP180;23926;53.222;6.354;2022-07-30T14:32:19;101817.00;;;26.30